Time;durP1;ratioP1;P1;durP2;ratioP2;P2;SDS_P1;SDS_P2;PMS_P1;PMS_P2;Temp;Humidity;BMP_temperature;BMP_pressure;BME280_temperature;BME280_humidity;BME280_pressure;Samples;Min_cycle;Max_cycle;Signal;HPM_P1;HPM_P2
2022/06/22 00:00:33;;;;;;;9.90;5.93;;;9.30;99.90;;;;;;5056449;28;20044;-46
2022/06/22 00:03:02;;;;;;;8.02;6.45;;;9.10;99.90;;;;;;5056226;28;20210;-46
2022/06/22 00:05:38;;;;;;;7.53;5.97;;;11.20;99.90;;;;;;5056253;28;20040;-49
2022/06/22 00:08:07;;;;;;;10.25;7.38;;;9.00;99.90;;;;;;5056200;28;20212;-46
2022/06/22 00:10:44;;;;;;;7.47;5.88;;;8.90;99.90;;;;;;5056145;28;20127;-49
2022/06/22 00:13:19;;;;;;;7.68;6.43;;;9.00;99.90;;;;;;5056172;28;20098;-48
2022/06/22 00:15:58;;;;;;;7.57;5.85;;;8.70;99.90;;;;;;5066014;28;20063;-47
2022/06/22 00:18:43;;;;;;;8.07;6.25;;;9.30;99.90;;;;;;5079385;28;20416;-48
2022/06/22 00:21:14;;;;;;;11.18;7.72;;;8.90;99.90;;;;;;5080226;28;20102;-47
2022/06/22 00:23:44;;;;;;;9.90;7.28;;;9.40;99.90;;;;;;5080775;28;20048;-45
2022/06/22 00:26:25;;;;;;;8.18;7.00;;;8.80;99.90;;;;;;5079896;28;20044;-43
2022/06/22 00:29:05;;;;;;;7.90;6.32;;;9.00;99.90;;;;;;5079626;28;20408;-44
2022/06/22 00:31:48;;;;;;;7.93;4.93;;;8.60;99.90;;;;;;5080087;28;20524;-43
2022/06/22 00:34:26;;;;;;;8.63;5.45;;;8.70;99.90;;;;;;5078301;28;20428;-42
2022/06/22 00:37:05;;;;;;;12.35;7.13;;;8.50;99.90;;;;;;5079434;28;20603;-43
2022/06/22 00:39:54;;;;;;;7.68;6.45;;;8.50;99.90;;;;;;5079650;28;20048;-44
2022/06/22 00:42:29;;;;;;;8.63;6.40;;;8.40;99.90;;;;;;5016385;28;20135;-45
2022/06/22 00:45:06;;;;;;;9.68;5.97;;;8.70;99.90;;;;;;5016432;28;20064;-43
2022/06/22 00:47:34;;;;;;;6.47;5.07;;;8.30;99.90;;;;;;5016983;28;20458;-42
2022/06/22 00:50:10;;;;;;;7.78;5.65;;;8.20;99.90;;;;;;5015428;28;20057;-44
2022/06/22 00:53:03;;;;;;;6.05;4.47;;;8.10;99.90;;;;;;5015607;28;20061;-44
2022/06/22 00:55:48;;;;;;;7.85;4.50;;;8.10;99.90;;;;;;5015432;28;20045;-45
2022/06/22 00:58:37;;;;;;;10.27;5.53;;;7.00;99.90;;;;;;5015194;28;20255;-43
2022/06/22 01:01:24;;;;;;;9.18;5.35;;;8.10;99.90;;;;;;5015209;28;20061;-47
2022/06/22 01:04:03;;;;;;;7.82;6.28;;;8.10;99.90;;;;;;5015379;28;20220;-43
2022/06/22 01:06:53;;;;;;;8.00;5.78;;;7.70;99.90;;;;;;5015121;28;20225;-43
2022/06/22 01:09:37;;;;;;;6.47;5.10;;;7.80;99.90;;;;;;5015056;28;20049;-44
2022/06/22 01:12:29;;;;;;;8.38;6.28;;;8.70;99.90;;;;;;5014882;28;20045;-45
2022/06/22 01:15:20;;;;;;;9.10;6.32;;;7.80;99.90;;;;;;4994335;28;20054;-45
2022/06/22 01:18:21;;;;;;;12.60;7.88;;;7.80;99.90;;;;;;4994887;28;20124;-43
2022/06/22 01:21:04;;;;;;;10.50;7.35;;;7.90;99.90;;;;;;4994200;28;20484;-43
2022/06/22 01:24:00;;;;;;;8.32;7.28;;;8.60;99.90;;;;;;4994845;28;20545;-41
2022/06/22 01:26:35;;;;;;;7.93;6.75;;;7.80;99.90;;;;;;4995216;28;20069;-41
2022/06/22 01:29:25;;;;;;;7.00;6.13;;;7.80;99.90;;;;;;4993958;28;20085;-45
2022/06/22 01:32:11;;;;;;;11.60;7.63;;;7.70;99.90;;;;;;4994440;28;20057;-46
2022/06/22 01:34:42;;;;;;;12.55;8.50;;;7.60;99.90;;;;;;4994709;28;20168;-49
2022/06/22 01:37:21;;;;;;;27.25;9.18;;;7.70;99.90;;;;;;4994715;28;20081;-48
2022/06/22 01:39:47;;;;;;;42.45;10.23;;;7.60;99.90;;;;;;4995793;28;20891;-48
2022/06/22 01:42:50;;;;;;;21.85;10.52;;;7.50;99.90;;;;;;4995655;28;20046;-48
2022/06/22 01:45:25;;;;;;;29.98;8.98;;;7.80;99.90;;;;;;4956751;28;20544;-48
2022/06/22 01:47:58;;;;;;;29.23;8.32;;;8.70;99.90;;;;;;4957153;28;20543;-49
2022/06/22 01:50:52;;;;;;;10.65;7.55;;;7.60;99.90;;;;;;4957211;28;20051;-46
2022/06/22 01:53:25;;;;;;;33.38;8.20;;;7.50;99.90;;;;;;4976293;28;20137;-45
2022/06/22 01:56:19;;;;;;;9.90;7.68;;;7.60;99.90;;;;;;4976868;28;20065;-47
2022/06/22 01:59:03;;;;;;;10.60;7.43;;;7.40;99.90;;;;;;5015876;28;21188;-47
2022/06/22 02:01:41;;;;;;;10.88;7.05;;;7.40;99.90;;;;;;5015571;28;20135;-46
2022/06/22 02:04:33;;;;;;;9.95;6.95;;;7.50;99.90;;;;;;5014461;28;20059;-45
2022/06/22 02:10:23;;;;;;;9.32;6.85;;;7.30;99.90;;;;;;5006461;28;20305;-49
2022/06/22 02:13:22;;;;;;;10.82;7.70;;;7.40;99.90;;;;;;4936832;29;20055;-48
2022/06/22 02:16:06;;;;;;;9.82;7.68;;;7.50;99.90;;;;;;4936630;28;20543;-45
2022/06/22 02:18:42;;;;;;;8.75;7.15;;;7.40;99.90;;;;;;4947976;28;20050;-49
2022/06/22 02:21:19;;;;;;;8.32;6.00;;;7.40;99.90;;;;;;4994632;28;20103;-46
2022/06/22 02:23:52;;;;;;;8.18;6.05;;;7.10;99.90;;;;;;4994784;28;20050;-47
2022/06/22 02:26:26;;;;;;;9.18;6.35;;;7.20;99.90;;;;;;4994661;28;20239;-49
2022/06/22 02:28:52;;;;;;;8.35;6.43;;;7.20;99.90;;;;;;4994820;28;20042;-46
2022/06/22 02:31:20;;;;;;;12.15;6.95;;;7.30;99.90;;;;;;4994742;28;20046;-48
2022/06/22 02:33:50;;;;;;;17.20;7.25;;;8.30;99.90;;;;;;4994904;28;20211;-47
2022/06/22 02:36:17;;;;;;;9.38;5.60;;;7.00;99.90;;;;;;4994542;28;20586;-48
2022/06/22 02:38:46;;;;;;;22.40;7.20;;;7.20;99.90;;;;;;4995301;28;20054;-46
2022/06/22 02:46:45;;;;;;;59.45;10.60;;;7.10;99.90;;;;;;4998414;28;20128;-47
2022/06/22 02:49:41;;;;;;;25.38;10.52;;;7.00;99.90;;;;;;5040924;28;20495;-46
2022/06/22 02:52:11;;;;;;;27.15;9.05;;;8.00;99.90;;;;;;5080347;28;20051;-48
2022/06/22 02:54:46;;;;;;;38.15;11.07;;;7.10;99.90;;;;;;5081880;28;20052;-43
2022/06/22 02:57:31;;;;;;;21.30;11.25;;;7.00;99.90;;;;;;5081823;28;20063;-47
2022/06/22 02:59:58;;;;;;;28.95;10.45;;;6.90;99.90;;;;;;5081764;28;20048;-46
2022/06/22 03:02:25;;;;;;;21.50;10.48;;;7.10;99.90;;;;;;5082343;28;20044;-45
2022/06/22 03:04:52;;;;;;;25.98;11.85;;;7.10;99.90;;;;;;5081552;28;20052;-44
2022/06/22 03:07:21;;;;;;;13.88;10.23;;;7.20;99.90;;;;;;5081513;28;20646;-45
2022/06/22 03:09:48;;;;;;;26.08;11.05;;;6.90;99.90;;;;;;5082032;28;20124;-48
2022/06/22 03:12:14;;;;;;;21.08;9.60;;;7.00;99.90;;;;;;5080447;28;20047;-47
2022/06/22 03:14:57;;;;;;;36.65;10.57;;;7.80;99.90;;;;;;5081371;28;20048;-48
2022/06/22 03:17:34;;;;;;;49.90;10.40;;;7.40;99.90;;;;;;5081008;28;20043;-46
2022/06/22 03:20:06;;;;;;;69.38;10.82;;;6.90;99.90;;;;;;5080148;28;20055;-47
2022/06/22 03:22:55;;;;;;;100.22;10.75;;;7.00;99.90;;;;;;5080516;28;20412;-44
2022/06/22 03:25:34;;;;;;;122.25;11.10;;;6.80;99.90;;;;;;5076090;28;20040;-46
2022/06/22 03:28:05;;;;;;;25.95;9.95;;;6.90;99.90;;;;;;5074331;28;20083;-44
2022/06/22 03:30:48;;;;;;;79.70;11.90;;;6.80;99.90;;;;;;5073905;28;20136;-46
2022/06/22 03:33:21;;;;;;;18.98;9.52;;;6.80;99.90;;;;;;5074771;28;20036;-46
2022/06/22 03:35:53;;;;;;;13.50;10.90;;;6.90;99.90;;;;;;5075196;28;20044;-46
2022/06/22 03:38:34;;;;;;;12.82;9.50;;;7.10;99.90;;;;;;5074671;28;20043;-44
2022/06/22 03:41:08;;;;;;;28.02;10.82;;;7.10;99.90;;;;;;5073209;28;20040;-45
2022/06/22 03:44:05;;;;;;;93.05;12.60;;;7.10;99.90;;;;;;5072602;28;20512;-44
2022/06/22 03:46:53;;;;;;;114.53;15.05;;;7.20;99.90;;;;;;5073660;28;20044;-45
2022/06/22 03:49:34;;;;;;;101.50;14.00;;;7.20;99.90;;;;;;5073377;28;20411;-46
2022/06/22 03:52:37;;;;;;;167.15;17.38;;;7.10;99.90;;;;;;5071442;28;20036;-47
2022/06/22 03:55:08;;;;;;;193.68;18.88;;;7.10;99.90;;;;;;5074275;28;20136;-47
2022/06/22 03:57:37;;;;;;;120.72;17.52;;;7.10;99.90;;;;;;5073697;28;20036;-46
2022/06/22 04:00:05;;;;;;;31.27;13.02;;;7.20;99.90;;;;;;5074125;28;20071;-47
2022/06/22 04:02:32;;;;;;;35.50;14.48;;;7.20;99.90;;;;;;5073779;28;20044;-45
2022/06/22 04:05:01;;;;;;;45.65;14.15;;;7.40;99.90;;;;;;5073538;28;20043;-49
2022/06/22 04:07:34;;;;;;;34.67;14.30;;;8.00;99.90;;;;;;5074341;28;20381;-48
2022/06/22 04:10:00;;;;;;;33.42;14.07;;;7.40;99.90;;;;;;5073832;28;20039;-45
2022/06/22 04:12:34;;;;;;;44.75;15.00;;;7.70;99.90;;;;;;5074067;28;20412;-46
2022/06/22 04:15:20;;;;;;;15.93;13.07;;;7.70;99.90;;;;;;5073339;28;20481;-46
2022/06/22 04:17:50;;;;;;;16.58;12.85;;;7.80;99.90;;;;;;5073917;28;20039;-48
2022/06/22 04:20:24;;;;;;;14.70;11.98;;;7.90;99.90;;;;;;5074248;28;20167;-46
2022/06/22 04:22:56;;;;;;;13.95;11.40;;;9.20;99.90;;;;;;5073909;28;20040;-51
2022/06/22 04:25:36;;;;;;;13.50;12.05;;;8.10;99.90;;;;;;5074558;28;20035;-46
2022/06/22 04:28:05;;;;;;;12.55;11.10;;;8.30;99.90;;;;;;5074764;28;20058;-48
2022/06/22 04:30:42;;;;;;;14.00;11.57;;;8.60;99.90;;;;;;5074980;28;20048;-48
2022/06/22 04:33:22;;;;;;;12.95;10.00;;;9.00;99.90;;;;;;5073375;28;20048;-46
2022/06/22 04:35:53;;;;;;;15.88;11.13;;;10.70;99.90;;;;;;5074453;28;20457;-46
2022/06/22 04:38:19;;;;;;;15.48;10.57;;;9.30;99.90;;;;;;5072547;28;20074;-46
2022/06/22 04:41:20;;;;;;;14.88;10.82;;;9.20;99.90;;;;;;5072813;28;20127;-46
2022/06/22 04:43:49;;;;;;;12.85;10.32;;;9.30;99.90;;;;;;5009937;28;20480;-45
2022/06/22 04:46:22;;;;;;;14.95;10.90;;;10.80;99.90;;;;;;5009651;28;20141;-45
2022/06/22 04:48:52;;;;;;;12.43;9.70;;;10.90;99.90;;;;;;5009219;28;20068;-46
2022/06/22 04:51:23;;;;;;;13.93;9.85;;;9.90;99.90;;;;;;5009423;28;20140;-49
2022/06/22 04:54:03;;;;;;;12.02;9.20;;;9.80;99.90;;;;;;5009716;28;20053;-45
2022/06/22 04:56:35;;;;;;;11.73;8.40;;;10.10;99.90;;;;;;5011475;28;20040;-45
2022/06/22 04:59:01;;;;;;;11.80;9.50;;;10.50;99.90;;;;;;5009647;28;20128;-45
2022/06/22 05:01:42;;;;;;;12.07;10.20;;;10.40;99.90;;;;;;5009007;28;20080;-47
2022/06/22 05:04:17;;;;;;;12.38;10.30;;;10.40;99.90;;;;;;5008908;28;20645;-46
2022/06/22 05:07:24;;;;;;;11.98;10.20;;;10.80;99.90;;;;;;5009694;28;20049;-44
2022/06/22 05:10:05;;;;;;;14.48;10.27;;;11.40;99.90;;;;;;4970118;28;20303;-45
2022/06/22 05:12:55;;;;;;;15.32;9.95;;;11.10;99.90;;;;;;4968559;28;20344;-48
2022/06/22 05:15:42;;;;;;;14.70;10.50;;;11.20;99.90;;;;;;4968943;28;20550;-46
2022/06/22 05:18:21;;;;;;;11.95;10.13;;;11.30;99.90;;;;;;4969560;28;20322;-47
2022/06/22 05:21:38;;;;;;;13.32;11.00;;;11.70;99.90;;;;;;4985728;28;20111;-47
2022/06/22 05:24:23;;;;;;;18.60;12.20;;;11.80;99.90;;;;;;4949915;28;20208;-49
2022/06/22 05:26:51;;;;;;;14.43;10.77;;;11.90;99.90;;;;;;4951745;28;20051;-48
2022/06/22 05:29:38;;;;;;;16.17;11.35;;;12.20;99.90;;;;;;4934729;28;20070;-45
2022/06/22 05:32:09;;;;;;;15.70;12.45;;;13.20;99.90;;;;;;4950272;28;20061;-47
2022/06/22 05:34:37;;;;;;;13.93;10.27;;;12.70;99.90;;;;;;4949852;28;20620;-47
2022/06/22 05:37:26;;;;;;;14.23;11.68;;;13.20;99.90;;;;;;4949951;28;20050;-46
2022/06/22 05:39:55;;;;;;;12.65;11.18;;;12.90;99.90;;;;;;4949683;28;20722;-48
2022/06/22 05:42:21;;;;;;;17.65;11.95;;;12.90;99.90;;;;;;4951216;28;20513;-49
2022/06/22 05:44:47;;;;;;;13.82;12.15;;;13.30;99.90;;;;;;4951003;28;20059;-50
2022/06/22 05:47:29;;;;;;;16.20;12.57;;;13.30;99.90;;;;;;4972402;28;20473;-48
2022/06/22 05:50:11;;;;;;;15.65;12.77;;;13.80;99.90;;;;;;4975729;28;20121;-47
2022/06/22 05:52:46;;;;;;;16.45;12.43;;;12.40;99.90;;;;;;4976972;28;20181;-45
2022/06/22 05:55:17;;;;;;;18.55;13.63;;;14.50;99.90;;;;;;4978633;28;20125;-46
2022/06/22 05:58:01;;;;;;;18.83;14.68;;;14.10;99.90;;;;;;5009891;28;20055;-47
2022/06/22 06:00:33;;;;;;;15.52;12.88;;;15.00;99.90;;;;;;5072651;28;20039;-46
2022/06/22 06:03:05;;;;;;;;;;;14.20;99.90;;;;;;5074427;28;20188;-45
2022/06/22 06:05:41;;;;;;;21.40;13.35;;;14.30;99.90;;;;;;5073260;28;19946;-49
2022/06/22 06:08:13;;;;;;;17.92;11.93;;;14.50;99.90;;;;;;5072558;28;20036;-49
2022/06/22 06:10:42;;;;;;;16.33;9.85;;;15.10;99.90;;;;;;5071332;28;20105;-50
2022/06/22 06:13:26;;;;;;;16.85;10.77;;;14.90;99.90;;;;;;5070901;28;20040;-50
2022/06/22 06:15:59;;;;;;;12.95;9.35;;;15.10;99.90;;;;;;5077632;28;20060;-47
2022/06/22 06:18:32;;;;;;;12.88;8.73;;;15.50;99.90;;;;;;5075809;28;20044;-48
2022/06/22 06:21:25;;;;;;;15.40;9.60;;;16.50;99.90;;;;;;5076066;28;20078;-47
2022/06/22 06:24:03;;;;;;;11.43;9.23;;;17.40;99.90;;;;;;5073341;28;20044;-50
2022/06/22 06:29:39;;;;;;;10.70;7.55;;;17.60;99.90;;;;;;5075494;28;20079;-45
2022/06/22 06:32:30;;;;;;;11.38;6.43;;;17.50;99.90;;;;;;5074999;28;20051;-49
2022/06/22 06:35:02;;;;;;;14.05;7.75;;;17.40;99.90;;;;;;5075543;28;20500;-42
2022/06/22 06:37:54;;;;;;;12.90;6.45;;;17.60;99.90;;;;;;5074358;28;20086;-43
2022/06/22 06:40:36;;;;;;;13.68;7.40;;;17.70;99.90;;;;;;5075208;28;20753;-41
2022/06/22 06:43:41;;;;;;;9.32;6.47;;;17.60;99.90;;;;;;5074628;28;20060;-42
2022/06/22 06:46:38;;;;;;;12.75;6.50;;;17.80;99.90;;;;;;5012881;28;20052;-41
2022/06/22 06:49:42;;;;;;;12.68;6.85;;;17.80;99.90;;;;;;5010975;28;20616;-43
2022/06/22 06:52:39;;;;;;;10.50;5.15;;;17.80;99.90;;;;;;5011762;28;20085;-43
2022/06/22 06:55:31;;;;;;;11.70;5.40;;;18.20;99.90;;;;;;5012165;28;20052;-43
2022/06/22 06:57:59;;;;;;;10.75;4.07;;;18.80;99.90;;;;;;4992927;28;20050;-44
2022/06/22 07:00:27;;;;;;;12.52;4.90;;;18.40;99.90;;;;;;4991964;28;21129;-45
2022/06/22 07:02:53;;;;;;;10.82;4.40;;;20.80;99.90;;;;;;4991886;28;20766;-41
2022/06/22 07:05:23;;;;;;;8.85;4.28;;;19.40;99.90;;;;;;4993764;28;20072;-44
2022/06/22 07:07:55;;;;;;;9.38;4.65;;;19.60;99.90;;;;;;4993975;28;20418;-45
2022/06/22 07:10:35;;;;;;;8.25;4.15;;;20.10;99.90;;;;;;4992638;28;20046;-45
2022/06/22 07:13:10;;;;;;;10.57;5.00;;;20.70;99.90;;;;;;4976675;28;20505;-45
2022/06/22 07:15:40;;;;;;;9.40;4.40;;;20.80;99.90;;;;;;4992613;28;20049;-44
2022/06/22 07:18:23;;;;;;;8.27;5.07;;;21.10;99.90;;;;;;4991091;28;20114;-45
2022/06/22 07:21:00;;;;;;;10.27;4.80;;;21.20;99.90;;;;;;4991560;28;20065;-46
2022/06/22 07:23:40;;;;;;;7.55;4.15;;;21.80;99.90;;;;;;5034626;28;20067;-44
2022/06/22 07:26:29;;;;;;;11.10;5.00;;;23.10;99.90;;;;;;5050855;28;20041;-47
2022/06/22 07:29:00;;;;;;;7.55;4.25;;;24.00;99.90;;;;;;4990927;28;20053;-44
2022/06/22 07:31:40;;;;;;;9.13;4.47;;;25.90;99.90;;;;;;4992391;28;20101;-47
2022/06/22 07:34:33;;;;;;;10.25;5.10;;;25.60;99.90;;;;;;4992848;28;20042;-46
2022/06/22 07:37:07;;;;;;;11.57;4.80;;;26.30;99.90;;;;;;5008412;28;20129;-46
2022/06/22 07:39:33;;;;;;;8.43;3.95;;;26.70;99.90;;;;;;5007935;28;20481;-45
2022/06/22 07:41:59;;;;;;;9.75;4.45;;;26.60;99.90;;;;;;5009343;28;20796;-48
2022/06/22 07:44:33;;;;;;;7.88;4.00;;;27.30;99.90;;;;;;5007900;28;20618;-47
2022/06/22 07:47:21;;;;;;;9.38;3.35;;;27.30;99.90;;;;;;5010562;28;20045;-47
2022/06/22 07:49:49;;;;;;;11.50;4.60;;;27.60;99.00;;;;;;5008224;28;20053;-46
2022/06/22 07:52:24;;;;;;;7.75;3.13;;;28.00;99.90;;;;;;5005321;28;20049;-48
2022/06/22 07:54:55;;;;;;;7.95;3.03;;;28.50;94.50;;;;;;5007408;28;20033;-47
2022/06/22 07:57:42;;;;;;;8.25;3.30;;;28.20;94.90;;;;;;5006499;28;20296;-48
2022/06/22 08:00:19;;;;;;;7.63;3.10;;;28.30;91.00;;;;;;5006730;28;20191;-48
2022/06/22 08:03:04;;;;;;;8.82;3.35;;;28.00;92.00;;;;;;5007635;28;20050;-47
2022/06/22 08:05:36;;;;;;;8.90;3.38;;;28.30;92.40;;;;;;5010120;28;20055;-49
2022/06/22 08:08:23;;;;;;;6.28;3.00;;;28.10;92.50;;;;;;5074209;28;20646;-48
2022/06/22 08:11:01;;;;;;;8.43;3.30;;;27.80;91.20;;;;;;5073825;28;20496;-45
2022/06/22 08:13:35;;;;;;;7.53;3.00;;;28.00;91.20;;;;;;5072993;28;20512;-49
2022/06/22 08:16:10;;;;;;;9.27;3.15;;;27.90;92.00;;;;;;5073093;28;20032;-48
2022/06/22 08:18:38;;;;;;;6.22;2.60;;;28.00;91.30;;;;;;5075906;28;20047;-46
2022/06/22 08:21:05;;;;;;;6.75;2.92;;;27.50;91.80;;;;;;5074324;28;20036;-44
2022/06/22 08:23:35;;;;;;;7.55;2.65;;;27.10;92.50;;;;;;5074810;28;20547;-48
2022/06/22 08:26:04;;;;;;;10.85;3.13;;;27.60;92.60;;;;;;5074447;28;20027;-48
2022/06/22 08:28:36;;;;;;;8.68;3.50;;;27.70;91.50;;;;;;5074536;28;20051;-47
2022/06/22 08:31:04;;;;;;;6.82;2.80;;;27.30;89.90;;;;;;5071081;28;20157;-48
2022/06/22 08:33:38;;;;;;;6.60;2.70;;;27.70;92.40;;;;;;5073454;28;20036;-49
2022/06/22 08:36:44;;;;;;;6.55;2.65;;;27.50;90.50;;;;;;5074423;28;20463;-49
2022/06/22 08:39:27;;;;;;;8.85;3.30;;;27.80;90.80;;;;;;4952568;28;20071;-46
2022/06/22 08:42:12;;;;;;;5.68;2.60;;;27.90;90.60;;;;;;4952422;28;20054;-47
2022/06/22 08:44:47;;;;;;;8.80;3.25;;;27.60;91.10;;;;;;4951007;28;20657;-45
2022/06/22 08:47:37;;;;;;;10.70;3.35;;;27.80;90.50;;;;;;4952681;28;20051;-48
2022/06/22 08:50:11;;;;;;;10.13;3.40;;;27.60;89.90;;;;;;4952816;28;20050;-46
2022/06/22 08:53:18;;;;;;;8.00;2.92;;;27.60;90.20;;;;;;4951353;28;20043;-47
2022/06/22 08:55:52;;;;;;;7.50;3.10;;;27.30;91.10;;;;;;4913211;29;20063;-48
2022/06/22 08:58:44;;;;;;;9.77;3.63;;;27.30;91.30;;;;;;4914321;29;20761;-47
2022/06/22 09:01:17;;;;;;;;;;;27.10;91.30;;;;;;4932242;29;20043;-47
2022/06/22 09:04:03;;;;;;;7.38;3.47;;;27.40;91.40;;;;;;4932028;29;20165;-46
2022/06/22 09:06:53;;;;;;;8.95;3.25;;;26.90;90.30;;;;;;4932890;29;20051;-47
2022/06/22 09:09:36;;;;;;;7.45;3.40;;;26.70;91.20;;;;;;4932493;28;20048;-47
2022/06/22 09:12:38;;;;;;;6.72;3.22;;;26.40;93.20;;;;;;4931289;29;20054;-44
2022/06/22 09:15:27;;;;;;;8.07;3.90;;;25.90;93.50;;;;;;4919279;28;20511;-44
2022/06/22 09:18:20;;;;;;;9.63;3.88;;;26.10;95.40;;;;;;4951716;28;20086;-47
2022/06/22 09:20:52;;;;;;;10.30;3.92;;;26.00;95.10;;;;;;4951536;28;20090;-47
2022/06/22 09:23:18;;;;;;;7.90;3.33;;;25.30;94.60;;;;;;4950913;28;20152;-45
2022/06/22 09:25:55;;;;;;;10.80;4.82;;;27.20;96.70;;;;;;4950016;28;20550;-45
2022/06/22 09:28:53;;;;;;;8.30;3.95;;;24.70;95.10;;;;;;4952710;28;20352;-47
2022/06/22 09:31:18;;;;;;;8.25;4.15;;;24.70;96.30;;;;;;4959124;28;20058;-43
2022/06/22 09:34:08;;;;;;;10.95;3.90;;;24.60;97.70;;;;;;4986530;28;20047;-47
2022/06/22 09:37:12;;;;;;;8.60;3.78;;;24.40;98.10;;;;;;4986854;28;20050;-45
2022/06/22 09:39:47;;;;;;;8.70;3.97;;;24.50;98.10;;;;;;5071683;28;20038;-46
2022/06/22 09:42:29;;;;;;;9.80;4.25;;;24.20;98.40;;;;;;5073643;28;20623;-43
2022/06/22 09:44:58;;;;;;;9.63;3.88;;;24.00;98.00;;;;;;5072266;28;20475;-47
2022/06/22 09:48:02;;;;;;;13.77;4.55;;;24.20;98.70;;;;;;5072099;28;20054;-46
2022/06/22 09:51:08;;;;;;;9.32;3.88;;;23.80;97.70;;;;;;5072757;28;20044;-45
2022/06/22 09:53:51;;;;;;;9.50;4.13;;;23.50;98.80;;;;;;5072589;28;20520;-47
2022/06/22 09:57:03;;;;;;;9.93;3.75;;;23.60;98.70;;;;;;5071644;28;20084;-46
2022/06/22 09:59:46;;;;;;;7.35;3.47;;;23.60;96.90;;;;;;4988586;28;20548;-44
2022/06/22 10:02:29;;;;;;;13.60;4.30;;;23.90;99.90;;;;;;4989509;28;20049;-46
2022/06/22 10:05:16;;;;;;;11.60;4.18;;;23.90;98.70;;;;;;4988880;28;20049;-43
2022/06/22 10:08:08;;;;;;;8.88;4.30;;;23.70;97.90;;;;;;4990500;28;20041;-43
2022/06/22 10:11:01;;;;;;;6.53;3.20;;;23.90;97.80;;;;;;4990336;28;20057;-44
2022/06/22 10:13:54;;;;;;;8.10;3.30;;;24.00;97.60;;;;;;4989054;28;20518;-44
2022/06/22 10:16:51;;;;;;;9.25;3.53;;;26.20;98.50;;;;;;4988582;28;20054;-47
2022/06/22 10:19:47;;;;;;;11.27;3.78;;;24.20;98.50;;;;;;4988169;28;20042;-48
2022/06/22 10:22:24;;;;;;;11.15;4.15;;;24.00;96.70;;;;;;4988956;28;20069;-47
2022/06/22 10:25:17;;;;;;;6.38;2.85;;;23.70;98.00;;;;;;4988422;28;20038;-47
2022/06/22 10:28:13;;;;;;;7.63;3.58;;;23.70;99.00;;;;;;4989472;28;20053;-48
2022/06/22 10:31:11;;;;;;;11.43;4.72;;;24.10;99.90;;;;;;4989494;28;20519;-51
2022/06/22 10:33:40;;;;;;;7.95;3.55;;;24.20;99.90;;;;;;4988570;28;20245;-50
2022/06/22 10:36:30;;;;;;;8.38;3.55;;;24.30;98.40;;;;;;5020099;28;20403;-49
2022/06/22 10:39:20;;;;;;;10.52;3.88;;;24.30;99.00;;;;;;5071951;28;20036;-48
2022/06/22 10:45:08;;;;;;;8.55;3.65;;;24.50;97.70;;;;;;5071985;28;20059;-50
2022/06/22 10:47:53;;;;;;;9.52;3.33;;;24.40;97.00;;;;;;5071973;28;20032;-49
2022/06/22 10:50:34;;;;;;;10.63;3.45;;;24.30;96.60;;;;;;5069313;28;20047;-48
2022/06/22 10:53:18;;;;;;;8.27;3.53;;;25.50;99.90;;;;;;5070909;28;20055;-48
2022/06/22 10:56:09;;;;;;;7.22;3.22;;;24.20;98.60;;;;;;5071329;28;20164;-50
2022/06/22 10:58:43;;;;;;;9.48;4.00;;;24.30;99.60;;;;;;5009568;28;20057;-52
2022/06/22 11:01:38;;;;;;;12.27;4.40;;;24.00;99.90;;;;;;5011839;28;20112;-50
2022/06/22 11:04:50;;;;;;;13.05;3.90;;;23.60;98.90;;;;;;5013206;28;20670;-48
2022/06/22 11:07:36;;;;;;;10.98;4.38;;;23.80;99.90;;;;;;5011319;28;20421;-52
2022/06/22 11:10:16;;;;;;;11.93;3.95;;;23.90;99.90;;;;;;4996207;28;20667;-51
2022/06/22 11:12:57;;;;;;;7.88;3.70;;;24.00;99.90;;;;;;5012110;28;20049;-47
2022/06/22 11:15:29;;;;;;;;;;;24.10;99.10;;;;;;5011845;28;20370;-49
2022/06/22 11:18:07;;;;;;;14.40;4.43;;;24.20;99.90;;;;;;5012059;28;19925;-48
2022/06/22 11:20:44;;;;;;;8.60;3.80;;;24.40;99.90;;;;;;5011473;28;20741;-50
2022/06/22 11:23:14;;;;;;;8.48;3.65;;;22.60;98.40;;;;;;5010629;28;20103;-48
2022/06/22 11:32:22;;;;;;;9.60;3.50;;;24.00;98.70;;;;;;5010835;28;20045;-48
2022/06/22 11:35:30;;;;;;;7.75;3.20;;;24.30;99.90;;;;;;5020200;28;20176;-47
2022/06/22 11:38:26;;;;;;;8.52;3.60;;;24.50;99.90;;;;;;5074586;28;20058;-51
2022/06/22 11:41:07;;;;;;;9.25;3.70;;;24.60;99.60;;;;;;5072610;28;20157;-51
2022/06/22 11:44:27;;;;;;;13.02;4.38;;;24.70;99.70;;;;;;5072598;28;20068;-47
2022/06/22 11:46:56;;;;;;;12.45;4.00;;;24.60;99.30;;;;;;4992690;28;20100;-49
2022/06/22 11:49:56;;;;;;;8.75;3.67;;;24.30;99.20;;;;;;4990809;28;20057;-50
2022/06/22 11:52:44;;;;;;;9.80;3.50;;;24.60;99.90;;;;;;4896268;29;20060;-51
2022/06/22 11:55:30;;;;;;;6.90;3.30;;;24.70;99.90;;;;;;4894982;29;20056;-47
2022/06/22 11:58:18;;;;;;;12.40;3.80;;;25.70;99.90;;;;;;4899079;29;20513;-50
2022/06/22 12:01:23;;;;;;;9.45;3.88;;;24.90;99.90;;;;;;4897865;29;20056;-51
2022/06/22 12:04:08;;;;;;;9.00;3.17;;;25.00;97.60;;;;;;4897169;29;20072;-52
2022/06/22 12:06:52;;;;;;;8.60;3.78;;;24.80;99.90;;;;;;4898254;29;20174;-49
2022/06/22 12:09:50;;;;;;;9.75;4.47;;;25.00;99.90;;;;;;4898148;29;20054;-50
2022/06/22 12:12:37;;;;;;;10.02;3.67;;;24.80;99.90;;;;;;4896136;29;20048;-51
2022/06/22 12:15:53;;;;;;;8.15;3.95;;;25.90;99.90;;;;;;4898534;29;20067;-51
2022/06/22 12:19:01;;;;;;;8.65;3.55;;;24.90;98.20;;;;;;4895262;29;20108;-51
2022/06/22 12:21:56;;;;;;;8.73;3.60;;;24.30;98.30;;;;;;4865608;29;20233;-50
2022/06/22 12:24:53;;;;;;;11.90;3.28;;;24.50;97.80;;;;;;4874163;29;20058;-46
2022/06/22 12:27:54;;;;;;;7.55;3.00;;;24.30;99.90;;;;;;4875695;29;20059;-50
2022/06/22 12:30:34;;;;;;;8.18;3.30;;;24.30;99.50;;;;;;4875576;29;20064;-52
2022/06/22 12:33:19;;;;;;;9.00;3.70;;;24.10;99.90;;;;;;4875771;29;20060;-51
2022/06/22 12:36:10;;;;;;;7.28;3.72;;;24.30;99.90;;;;;;4874706;29;20053;-52
2022/06/22 12:38:48;;;;;;;9.00;3.50;;;24.30;99.90;;;;;;4873749;29;20182;-52
2022/06/22 12:41:42;;;;;;;8.68;4.03;;;24.70;99.90;;;;;;4875169;29;20060;-52
2022/06/22 12:44:26;;;;;;;10.10;4.03;;;24.50;99.10;;;;;;4875302;29;20514;-52
2022/06/22 12:47:04;;;;;;;11.07;4.18;;;24.50;99.90;;;;;;4876270;29;20160;-50
2022/06/22 12:49:42;;;;;;;8.70;3.92;;;24.50;99.90;;;;;;4874986;29;20052;-50
2022/06/22 12:52:18;;;;;;;9.27;3.58;;;24.80;99.90;;;;;;4873630;29;20822;-50
2022/06/22 12:54:51;;;;;;;13.57;4.13;;;24.80;99.90;;;;;;4891322;29;20456;-53
2022/06/22 12:57:29;;;;;;;9.00;3.45;;;24.70;99.90;;;;;;4901838;28;20138;-49
2022/06/22 13:00:12;;;;;;;7.40;3.28;;;24.70;99.90;;;;;;4972264;28;20149;-50
2022/06/22 13:02:40;;;;;;;10.23;3.65;;;24.80;99.90;;;;;;4969563;28;20050;-49
2022/06/22 13:05:11;;;;;;;9.73;3.60;;;24.70;99.90;;;;;;4968586;28;20503;-50
2022/06/22 13:07:40;;;;;;;;;;;24.80;99.90;;;;;;5055739;28;20527;-50
2022/06/22 13:10:07;;;;;;;8.02;3.20;;;24.90;99.90;;;;;;5072383;28;20544;-48
2022/06/22 13:13:16;;;;;;;10.00;3.45;;;24.70;99.90;;;;;;5071166;28;20047;-52
2022/06/22 13:15:55;;;;;;;10.98;3.88;;;24.80;99.90;;;;;;5072517;28;20438;-49
2022/06/22 13:18:48;;;;;;;9.23;3.65;;;24.70;99.90;;;;;;5072355;28;20032;-50
2022/06/22 13:21:22;;;;;;;9.05;2.95;;;24.60;99.90;;;;;;5073408;28;20036;-52
2022/06/22 13:23:51;;;;;;;9.25;3.55;;;24.60;99.90;;;;;;5073775;28;20051;-49
2022/06/22 13:26:50;;;;;;;8.85;3.20;;;24.60;99.90;;;;;;5073411;28;20036;-50
2022/06/22 13:29:34;;;;;;;10.30;3.50;;;24.60;99.90;;;;;;5073479;28;20956;-50
2022/06/22 13:32:06;;;;;;;8.93;3.70;;;24.70;99.90;;;;;;5071946;28;20668;-52
2022/06/22 13:34:42;;;;;;;8.60;4.13;;;24.50;99.90;;;;;;5073114;28;20036;-50
2022/06/22 13:37:51;;;;;;;8.65;3.85;;;24.40;99.90;;;;;;5071912;28;20093;-48
2022/06/22 13:40:32;;;;;;;11.02;4.00;;;24.30;99.90;;;;;;5071802;28;20792;-51
2022/06/22 13:43:35;;;;;;;10.48;3.97;;;24.30;99.90;;;;;;5071976;28;20056;-48
2022/06/22 13:46:40;;;;;;;11.40;4.35;;;24.30;99.90;;;;;;5008592;28;20072;-47
2022/06/22 13:49:24;;;;;;;14.98;4.72;;;24.40;99.90;;;;;;5007521;28;21414;-51
2022/06/22 13:52:04;;;;;;;12.23;4.78;;;24.10;99.90;;;;;;5008501;28;20610;-50
2022/06/22 13:54:56;;;;;;;10.88;4.72;;;24.30;99.90;;;;;;5006635;28;20382;-48
2022/06/22 13:57:49;;;;;;;10.98;3.90;;;24.10;99.90;;;;;;5008248;28;20144;-47
2022/06/22 14:00:44;;;;;;;20.55;5.15;;;24.00;99.90;;;;;;5009198;28;20313;-52
2022/06/22 14:03:25;;;;;;;35.83;5.75;;;23.90;99.90;;;;;;5009230;28;20049;-47
2022/06/22 14:05:55;;;;;;;21.23;5.20;;;23.70;99.90;;;;;;5007315;28;20050;-50
2022/06/22 14:08:36;;;;;;;19.83;5.32;;;23.70;99.90;;;;;;5008392;28;20101;-50
2022/06/22 14:11:14;;;;;;;31.13;6.53;;;23.40;99.90;;;;;;5008492;28;20660;-48
2022/06/22 14:14:01;;;;;;;21.52;5.22;;;23.40;99.90;;;;;;5009369;28;20061;-49
2022/06/22 14:16:50;;;;;;;16.92;5.43;;;23.20;99.90;;;;;;5009434;28;20101;-49